createdAt,value
2023-04-06T00:00:03.610Z,20.70
2023-04-06T00:02:32.280Z,21.60
2023-04-06T00:05:00.720Z,19.73
2023-04-06T00:07:31.054Z,20.20
2023-04-06T00:09:59.708Z,21.27
2023-04-06T00:12:28.117Z,21.07
2023-04-06T00:14:56.485Z,20.73
2023-04-06T00:17:24.857Z,19.57
2023-04-06T00:19:53.202Z,19.33
2023-04-06T00:22:21.758Z,19.67
2023-04-06T00:24:51.548Z,19.00
2023-04-06T00:27:19.945Z,19.60
2023-04-06T00:29:48.437Z,18.90
2023-04-06T00:32:17.190Z,18.57
2023-04-06T00:34:45.770Z,18.93
2023-04-06T00:37:14.334Z,18.27
2023-04-06T00:39:42.796Z,16.00
2023-04-06T00:42:14.444Z,17.47
2023-04-06T00:44:42.833Z,16.00
2023-04-06T00:47:11.280Z,15.97
2023-04-06T00:49:39.680Z,14.70
2023-04-06T00:52:08.018Z,15.13
2023-04-06T00:54:36.369Z,14.33
2023-04-06T00:57:04.776Z,13.83
2023-04-06T00:59:34.563Z,14.67
2023-04-06T01:02:03.019Z,14.03
2023-04-06T01:04:31.358Z,13.67
2023-04-06T01:06:59.673Z,13.30
2023-04-06T01:09:28.089Z,13.50
2023-04-06T01:11:56.593Z,13.50
2023-04-06T01:14:25.053Z,12.80
2023-04-06T01:16:54.968Z,13.20
2023-04-06T01:19:23.295Z,12.40
2023-04-06T01:21:54.167Z,14.23
2023-04-06T01:24:24.007Z,12.97
2023-04-06T01:26:52.360Z,13.03
2023-04-06T01:29:20.751Z,12.23
2023-04-06T01:31:49.156Z,12.50
2023-04-06T01:34:17.632Z,12.47
2023-04-06T01:36:46.026Z,12.07
2023-04-06T01:39:14.397Z,11.87
2023-04-06T01:41:44.091Z,12.33
2023-04-06T01:44:12.752Z,13.07
2023-04-06T01:46:41.125Z,12.70
2023-04-06T01:49:09.709Z,12.83
2023-04-06T01:51:38.282Z,12.77
2023-04-06T01:54:06.751Z,13.30
2023-04-06T01:56:35.158Z,12.87
2023-04-06T01:59:05.340Z,13.47
2023-04-06T02:01:33.842Z,12.60
2023-04-06T02:04:02.315Z,13.90
2023-04-06T02:06:31.231Z,13.40
2023-04-06T02:08:59.645Z,13.97
2023-04-06T02:11:27.961Z,13.90
2023-04-06T02:13:56.427Z,13.63
2023-04-06T02:16:26.202Z,13.23
2023-04-06T02:18:54.632Z,12.83
2023-04-06T02:21:23.079Z,14.43
2023-04-06T02:23:51.762Z,13.77
2023-04-06T02:26:20.117Z,13.80
2023-04-06T02:28:48.549Z,13.87
2023-04-06T02:31:17.182Z,14.50
2023-04-06T02:33:47.019Z,14.57
2023-04-06T02:36:15.855Z,13.70
2023-04-06T02:38:44.744Z,13.60
2023-04-06T02:41:13.140Z,14.57
2023-04-06T02:43:41.520Z,14.60
2023-04-06T02:46:09.964Z,14.33
2023-04-06T02:48:38.451Z,14.00
2023-04-06T02:51:08.240Z,14.50
2023-04-06T02:53:36.636Z,14.63
2023-04-06T02:56:04.996Z,13.73
2023-04-06T02:58:33.787Z,14.30
2023-04-06T03:01:02.224Z,14.87
2023-04-06T03:03:31.229Z,14.70
2023-04-06T03:06:01.202Z,14.93
2023-04-06T03:08:30.966Z,14.73
2023-04-06T03:10:59.561Z,15.10
2023-04-06T03:13:27.890Z,14.50
2023-04-06T03:15:56.532Z,14.90
2023-04-06T03:18:25.282Z,15.30
2023-04-06T03:20:55.028Z,15.27
2023-04-06T03:23:23.512Z,15.43
2023-04-06T03:25:53.239Z,14.70
2023-04-06T03:28:21.562Z,14.10
2023-04-06T03:30:49.889Z,15.33
2023-04-06T03:33:18.210Z,15.10
2023-04-06T03:35:46.745Z,15.17
2023-04-06T03:38:15.671Z,15.17
2023-04-06T03:40:44.404Z,14.73
2023-04-06T03:43:14.343Z,14.90
2023-04-06T03:45:42.683Z,16.10
2023-04-06T03:48:11.031Z,15.73
2023-04-06T03:50:39.398Z,15.23
2023-04-06T03:53:07.782Z,15.60
2023-04-06T03:55:36.260Z,16.00
2023-04-06T03:58:04.631Z,14.93
2023-04-06T04:00:35.002Z,15.27
2023-04-06T04:03:03.650Z,15.40
2023-04-06T04:05:32.099Z,15.67
2023-04-06T04:08:00.451Z,15.37
2023-04-06T04:10:28.846Z,15.73
2023-04-06T04:12:57.249Z,15.83
2023-04-06T04:15:25.653Z,15.60
2023-04-06T04:17:55.529Z,15.93
2023-04-06T04:20:23.909Z,15.97
2023-04-06T04:22:52.287Z,15.03
2023-04-06T04:25:20.689Z,16.33
2023-04-06T04:27:49.056Z,16.53
2023-04-06T04:30:17.532Z,16.63
2023-04-06T04:32:45.881Z,17.07
2023-04-06T04:35:15.567Z,17.90
2023-04-06T04:37:45.242Z,16.47
2023-04-06T04:40:13.966Z,17.23
2023-04-06T04:42:42.308Z,18.77
2023-04-06T04:45:11.181Z,17.50
2023-04-06T04:47:39.517Z,17.50
2023-04-06T04:50:08.465Z,18.10
2023-04-06T04:52:38.153Z,18.70
2023-04-06T04:55:06.873Z,18.33
2023-04-06T04:57:35.237Z,20.27
2023-04-06T05:00:03.758Z,20.33
2023-04-06T05:02:32.181Z,19.93
2023-04-06T05:05:00.520Z,20.80
2023-04-06T05:07:28.883Z,21.70
2023-04-06T05:09:58.697Z,20.73
2023-04-06T05:12:28.082Z,21.90
2023-04-06T05:14:56.474Z,22.43
2023-04-06T05:17:24.973Z,23.33
2023-04-06T05:19:53.378Z,22.50
2023-04-06T05:22:21.725Z,22.90
2023-04-06T05:24:50.081Z,23.20
2023-04-06T05:27:19.771Z,23.20
2023-04-06T05:29:48.061Z,23.43
2023-04-06T05:32:16.567Z,22.90
2023-04-06T05:34:44.916Z,23.23
2023-04-06T05:37:13.481Z,24.13
2023-04-06T05:39:42.007Z,24.73
2023-04-06T05:42:10.297Z,24.70
2023-04-06T05:44:41.095Z,25.87
2023-04-06T05:47:09.466Z,25.23
2023-04-06T05:49:37.994Z,25.33
2023-04-06T05:52:06.512Z,25.10
2023-04-06T05:54:34.839Z,24.90
2023-04-06T05:57:04.824Z,26.97
2023-04-06T05:59:33.480Z,25.30
2023-04-06T06:02:03.312Z,25.00
2023-04-06T06:04:33.070Z,25.90
2023-04-06T06:07:01.394Z,25.87
2023-04-06T06:09:29.713Z,25.73
2023-04-06T06:11:58.123Z,27.23
2023-04-06T06:14:29.384Z,26.83
2023-04-06T06:16:57.803Z,27.10
2023-04-06T06:19:27.499Z,26.50
2023-04-06T06:21:56.129Z,27.00
2023-04-06T06:24:24.491Z,25.17
2023-04-06T06:26:52.784Z,26.83
2023-04-06T06:29:21.197Z,26.53
2023-04-06T06:31:49.558Z,27.37
2023-04-06T06:34:17.935Z,28.27
2023-04-06T06:36:49.009Z,28.37
2023-04-06T06:39:18.246Z,28.33
2023-04-06T06:41:46.597Z,28.03
2023-04-06T06:44:14.931Z,27.30
2023-04-06T06:46:43.431Z,29.37
2023-04-06T06:49:13.180Z,28.87
2023-04-06T06:51:41.599Z,28.77
2023-04-06T06:54:14.288Z,29.43
2023-04-06T06:56:42.838Z,28.73
2023-04-06T06:59:11.143Z,29.63
2023-04-06T07:01:39.598Z,29.50
2023-04-06T07:04:09.667Z,30.27
2023-04-06T07:06:38.316Z,29.70
2023-04-06T07:09:06.644Z,29.27
2023-04-06T07:11:36.502Z,30.60
2023-04-06T07:14:04.850Z,28.40
2023-04-06T07:16:33.226Z,26.57
2023-04-06T07:19:01.575Z,25.43
2023-04-06T07:21:29.894Z,25.17
2023-04-06T07:23:58.291Z,23.40
2023-04-06T07:26:26.807Z,22.40
2023-04-06T07:28:56.659Z,19.73
2023-04-06T07:31:25.056Z,19.73
2023-04-06T07:33:53.444Z,18.47
2023-04-06T07:36:22.743Z,18.10
2023-04-06T07:38:51.105Z,17.63
2023-04-06T07:41:19.438Z,16.87
2023-04-06T07:43:47.771Z,16.93
2023-04-06T07:46:17.509Z,18.70
2023-04-06T07:48:45.899Z,18.60
2023-04-06T07:51:15.991Z,18.60
2023-04-06T07:53:44.304Z,17.83
2023-04-06T07:56:13.155Z,18.17
2023-04-06T07:58:41.626Z,18.10
2023-04-06T08:01:10.071Z,17.43
2023-04-06T08:03:40.148Z,17.13
2023-04-06T08:06:08.955Z,17.80
2023-04-06T08:08:37.400Z,16.50
2023-04-06T08:11:05.861Z,16.43
2023-04-06T08:13:34.267Z,17.23
2023-04-06T08:16:02.646Z,17.07
2023-04-06T08:18:31.159Z,17.60
2023-04-06T08:21:00.982Z,16.40
2023-04-06T08:23:29.324Z,16.83
2023-04-06T08:25:57.674Z,15.57
2023-04-06T08:28:26.048Z,17.00
2023-04-06T08:30:54.401Z,16.87
2023-04-06T08:33:22.832Z,17.20
2023-04-06T08:35:51.617Z,14.10
2023-04-06T08:38:21.437Z,11.60
2023-04-06T08:40:51.984Z,10.20
2023-04-06T08:43:20.535Z,11.00
2023-04-06T08:45:48.823Z,10.43
2023-04-06T08:48:17.142Z,8.87
2023-04-06T08:50:45.547Z,8.70
2023-04-06T08:53:13.970Z,9.67
2023-04-06T08:55:44.231Z,9.13
2023-04-06T08:58:12.545Z,8.60
2023-04-06T09:00:40.982Z,8.00
2023-04-06T09:03:09.575Z,7.93
2023-04-06T09:05:37.982Z,7.10
2023-04-06T09:08:06.384Z,6.40
2023-04-06T09:10:35.258Z,6.83
2023-04-06T09:13:08.657Z,6.07
2023-04-06T09:15:37.057Z,6.33
2023-04-06T09:18:05.515Z,6.80
2023-04-06T09:20:33.994Z,7.13
2023-04-06T09:23:02.389Z,7.83
2023-04-06T09:25:32.373Z,7.47
2023-04-06T09:28:01.301Z,7.93
2023-04-06T09:30:31.032Z,8.73
2023-04-06T09:33:00.498Z,8.37
2023-04-06T09:35:30.987Z,8.30
2023-04-06T09:37:59.439Z,8.10
2023-04-06T09:40:29.998Z,9.10
2023-04-06T09:43:00.328Z,9.23
2023-04-06T09:45:29.031Z,9.80
2023-04-06T09:47:59.466Z,9.17
2023-04-06T09:50:27.998Z,9.43
2023-04-06T09:52:57.155Z,10.07
2023-04-06T09:55:26.707Z,9.73
2023-04-06T09:57:55.981Z,10.40
2023-04-06T10:00:24.836Z,10.57
2023-04-06T10:02:53.866Z,10.57
2023-04-06T10:05:25.709Z,10.27
2023-04-06T10:08:00.445Z,10.07
2023-04-06T10:10:30.035Z,10.70
2023-04-06T10:12:58.428Z,10.87
2023-04-06T10:15:26.728Z,10.37
2023-04-06T10:17:55.539Z,10.17
2023-04-06T10:20:26.241Z,10.70
2023-04-06T10:22:57.792Z,10.37
2023-04-06T10:25:29.717Z,9.83
2023-04-06T10:28:04.349Z,10.87
2023-04-06T10:30:32.762Z,10.27
2023-04-06T10:33:01.198Z,10.33
2023-04-06T10:35:40.511Z,9.30
2023-04-06T10:38:09.162Z,9.87
2023-04-06T10:40:38.463Z,8.77
2023-04-06T10:43:10.808Z,9.17
2023-04-06T10:45:39.918Z,9.63
2023-04-06T10:48:17.762Z,9.70
2023-04-06T10:50:49.539Z,9.47
2023-04-06T10:53:23.495Z,10.90
2023-04-06T10:55:52.393Z,10.50
2023-04-06T10:58:20.822Z,11.20
2023-04-06T11:00:51.109Z,11.73
2023-04-06T11:03:19.990Z,11.83
2023-04-06T11:05:49.889Z,11.10
2023-04-06T11:08:31.064Z,10.97
2023-04-06T11:11:09.032Z,10.67
2023-04-06T11:13:43.822Z,11.13
2023-04-06T11:16:15.656Z,11.20
2023-04-06T11:18:54.041Z,10.93
2023-04-06T11:21:40.090Z,10.67
2023-04-06T11:24:09.495Z,11.33
2023-04-06T11:26:41.770Z,11.60
2023-04-06T11:29:10.077Z,11.33
2023-04-06T11:31:42.656Z,11.33
2023-04-06T11:34:14.732Z,10.97
2023-04-06T11:36:44.902Z,11.63
2023-04-06T11:39:13.289Z,12.77
2023-04-06T11:41:41.714Z,13.20
2023-04-06T11:44:10.240Z,13.73
2023-04-06T11:46:38.544Z,13.60
2023-04-06T11:49:07.064Z,13.50
2023-04-06T11:51:38.495Z,13.80
2023-04-06T11:54:08.371Z,14.10
2023-04-06T11:56:36.724Z,14.83
2023-04-06T11:59:05.151Z,14.83
2023-04-06T12:01:38.873Z,15.13
2023-04-06T12:04:08.600Z,14.80
2023-04-06T12:06:37.471Z,14.33
2023-04-06T12:09:06.064Z,14.70
2023-04-06T12:11:36.181Z,14.60
2023-04-06T12:14:05.912Z,14.90
2023-04-06T12:16:34.268Z,16.27
2023-04-06T12:19:02.757Z,14.70
2023-04-06T12:21:32.042Z,14.13
2023-04-06T12:24:00.659Z,14.43
2023-04-06T12:26:36.942Z,14.30
2023-04-06T12:29:07.976Z,13.33
2023-04-06T12:31:37.235Z,13.33
2023-04-06T12:34:05.625Z,13.43
2023-04-06T12:36:34.174Z,13.43
2023-04-06T12:39:03.521Z,12.93
2023-04-06T12:41:32.020Z,12.63
2023-04-06T12:44:01.793Z,12.13
2023-04-06T12:46:31.780Z,10.50
2023-04-06T12:49:00.228Z,9.37
2023-04-06T12:51:30.157Z,11.13
2023-04-06T12:53:58.561Z,10.17
2023-04-06T12:56:27.007Z,11.40
2023-04-06T12:58:55.964Z,11.33
2023-04-06T13:01:26.409Z,9.97
2023-04-06T13:03:55.174Z,11.30
2023-04-06T13:06:23.524Z,10.57
2023-04-06T13:08:55.185Z,9.80
2023-04-06T13:11:26.932Z,10.57
2023-04-06T13:13:56.347Z,10.70
2023-04-06T13:16:26.025Z,10.70
2023-04-06T13:18:54.691Z,10.43
2023-04-06T13:21:23.028Z,10.73
2023-04-06T13:23:52.683Z,10.07
2023-04-06T13:26:21.207Z,10.27
2023-04-06T13:28:49.634Z,10.83
2023-04-06T13:31:17.963Z,10.97
2023-04-06T13:33:47.673Z,10.50
2023-04-06T13:36:17.992Z,11.23
2023-04-06T13:38:49.484Z,11.87
2023-04-06T13:41:21.892Z,12.57
2023-04-06T13:43:50.806Z,11.50
2023-04-06T13:46:19.407Z,11.97
2023-04-06T13:48:49.204Z,12.07
2023-04-06T13:51:17.537Z,11.33
2023-04-06T13:53:46.382Z,11.40
2023-04-06T13:56:14.673Z,11.63
2023-04-06T13:58:43.188Z,11.27
2023-04-06T14:01:11.900Z,11.37
2023-04-06T14:03:43.193Z,10.70
2023-04-06T14:06:29.764Z,11.70
2023-04-06T14:08:59.751Z,11.73
2023-04-06T14:11:28.860Z,11.80
2023-04-06T14:13:58.869Z,11.53
2023-04-06T14:16:27.677Z,11.10
2023-04-06T14:18:58.712Z,11.20
2023-04-06T14:21:28.809Z,11.07
2023-04-06T14:23:59.553Z,11.23
2023-04-06T14:26:41.036Z,12.03
2023-04-06T14:29:13.712Z,12.00
2023-04-06T14:31:45.948Z,11.10
2023-04-06T14:34:22.558Z,10.97
2023-04-06T14:36:53.059Z,9.87
2023-04-06T14:39:27.175Z,10.83
2023-04-06T14:41:58.006Z,10.57
2023-04-06T14:44:26.746Z,11.07
2023-04-06T14:46:55.078Z,10.60
2023-04-06T14:49:23.378Z,11.27
2023-04-06T14:51:54.047Z,10.07
2023-04-06T14:54:37.791Z,9.37
2023-04-06T14:57:17.027Z,10.10
2023-04-06T14:59:49.297Z,9.27
2023-04-06T15:02:19.122Z,10.13
2023-04-06T15:04:55.384Z,10.43
2023-04-06T15:07:25.230Z,10.87
2023-04-06T15:10:15.904Z,10.50
2023-04-06T15:12:48.494Z,10.70
2023-04-06T15:15:21.683Z,10.57
2023-04-06T15:17:54.595Z,11.33
2023-04-06T15:20:30.125Z,12.57
2023-04-06T15:23:01.649Z,12.03
2023-04-06T15:25:31.551Z,13.47
2023-04-06T15:28:04.490Z,13.80
2023-04-06T15:30:45.157Z,14.03
2023-04-06T15:33:22.319Z,12.40
2023-04-06T15:35:52.884Z,12.77
2023-04-06T15:38:28.187Z,13.40
2023-04-06T15:41:12.954Z,13.83
2023-04-06T15:43:43.064Z,14.17
2023-04-06T15:46:18.414Z,14.00
2023-04-06T15:49:10.504Z,14.70
2023-04-06T15:51:41.370Z,14.03
2023-04-06T15:54:12.339Z,14.87
2023-04-06T15:56:53.596Z,14.70
2023-04-06T15:59:23.895Z,15.47
2023-04-06T16:02:03.331Z,15.03
2023-04-06T16:04:41.743Z,15.67
2023-04-06T16:07:10.172Z,16.10
2023-04-06T16:09:40.007Z,18.23
2023-04-06T16:12:09.820Z,18.03
2023-04-06T16:14:38.407Z,19.07
2023-04-06T16:17:06.828Z,20.30
2023-04-06T16:19:35.413Z,20.73
2023-04-06T16:22:04.009Z,21.40
2023-04-06T16:24:32.361Z,22.57
2023-04-06T16:27:03.022Z,23.43
2023-04-06T16:29:31.957Z,23.07
2023-04-06T16:32:00.697Z,23.30
2023-04-06T16:34:33.140Z,24.80
2023-04-06T16:37:02.031Z,25.47
2023-04-06T16:39:30.501Z,26.07
2023-04-06T16:42:00.125Z,25.60
2023-04-06T16:44:31.849Z,24.73
2023-04-06T16:47:00.641Z,26.50
2023-04-06T16:49:30.161Z,25.87
2023-04-06T16:52:01.973Z,26.03
2023-04-06T16:54:30.433Z,25.53
2023-04-06T16:56:58.790Z,25.13
2023-04-06T16:59:27.245Z,25.33
2023-04-06T17:01:57.185Z,25.53
2023-04-06T17:04:25.708Z,25.40
2023-04-06T17:06:54.056Z,25.33
2023-04-06T17:09:25.239Z,24.47
2023-04-06T17:11:53.803Z,26.43
2023-04-06T17:14:22.443Z,24.87
2023-04-06T17:16:50.833Z,25.43
2023-04-06T17:19:20.767Z,24.63
2023-04-06T17:21:49.516Z,24.27
2023-04-06T17:24:18.895Z,21.67
2023-04-06T17:26:47.213Z,21.80
2023-04-06T17:29:17.022Z,19.17
2023-04-06T17:31:46.269Z,17.87
2023-04-06T17:34:14.711Z,16.03
2023-04-06T17:36:44.654Z,14.03
2023-04-06T17:39:13.063Z,13.77
2023-04-06T17:41:41.390Z,13.30
2023-04-06T17:44:09.734Z,12.50
2023-04-06T17:46:38.145Z,11.27
2023-04-06T17:49:08.400Z,11.30
2023-04-06T17:51:36.931Z,10.13
2023-04-06T17:54:06.817Z,9.43
2023-04-06T17:56:35.473Z,9.50
2023-04-06T17:59:07.981Z,8.80
2023-04-06T18:01:36.521Z,9.30
2023-04-06T18:04:05.193Z,8.87
2023-04-06T18:06:33.617Z,8.00
2023-04-06T18:09:02.115Z,8.03
2023-04-06T18:11:32.742Z,7.73
2023-04-06T18:14:01.403Z,7.90
2023-04-06T18:16:29.859Z,8.03
2023-04-06T18:18:58.589Z,8.73
2023-04-06T18:21:27.930Z,7.27
2023-04-06T18:23:56.465Z,8.07
2023-04-06T18:26:25.532Z,7.33
2023-04-06T18:28:56.013Z,7.20
2023-04-06T18:31:24.498Z,6.73
2023-04-06T18:33:54.374Z,6.37
2023-04-06T18:36:23.376Z,6.27
2023-04-06T18:38:52.190Z,5.77
2023-04-06T18:41:22.573Z,5.90
2023-04-06T18:43:51.035Z,5.33
2023-04-06T18:46:22.458Z,5.30
2023-04-06T18:48:51.033Z,5.90
2023-04-06T18:51:19.423Z,5.70
2023-04-06T18:53:47.882Z,5.10
2023-04-06T18:56:16.757Z,6.33
2023-04-06T18:58:45.376Z,5.60
2023-04-06T19:01:18.416Z,5.20
2023-04-06T19:03:48.495Z,4.50
2023-04-06T19:06:17.061Z,5.10
2023-04-06T19:08:45.441Z,4.10
2023-04-06T19:11:14.094Z,4.90
2023-04-06T19:13:46.246Z,4.73
2023-04-06T19:16:14.694Z,3.90
2023-04-06T19:18:43.495Z,4.20
2023-04-06T19:21:17.996Z,4.27
2023-04-06T19:23:46.531Z,4.27
2023-04-06T19:26:15.010Z,4.20
2023-04-06T19:28:43.492Z,5.13
2023-04-06T19:31:12.353Z,4.40
2023-04-06T19:33:40.783Z,3.57
2023-04-06T19:36:09.688Z,3.60
2023-04-06T19:38:39.951Z,3.57
2023-04-06T19:41:08.633Z,3.57
2023-04-06T19:43:37.055Z,3.67
2023-04-06T19:46:05.626Z,4.67
2023-04-06T19:48:34.348Z,3.90
2023-04-06T19:51:02.785Z,3.10
2023-04-06T19:53:31.209Z,3.77
2023-04-06T19:56:01.145Z,3.27
2023-04-06T19:58:29.546Z,3.60
2023-04-06T20:00:57.979Z,4.00
2023-04-06T20:03:27.025Z,3.20
2023-04-06T20:05:55.748Z,3.20
2023-04-06T20:08:24.088Z,3.17
2023-04-06T20:10:52.627Z,3.30
2023-04-06T20:13:22.537Z,2.90
2023-04-06T20:15:51.636Z,3.07
2023-04-06T20:18:20.243Z,3.23
2023-04-06T20:20:49.803Z,3.70
2023-04-06T20:23:18.376Z,3.23
2023-04-06T20:25:47.110Z,3.57
2023-04-06T20:28:15.531Z,3.70
2023-04-06T20:30:45.495Z,3.27
2023-04-06T20:33:13.988Z,3.27
2023-04-06T20:35:42.790Z,2.60
2023-04-06T20:38:11.303Z,2.87
2023-04-06T20:40:40.106Z,3.03
2023-04-06T20:43:10.056Z,3.13
2023-04-06T20:45:39.060Z,3.03
2023-04-06T20:48:08.948Z,2.70
2023-04-06T20:50:38.978Z,2.97
2023-04-06T20:53:07.394Z,2.70
2023-04-06T20:55:36.560Z,2.73
2023-04-06T20:58:04.921Z,2.97
2023-04-06T21:00:33.444Z,2.93
2023-04-06T21:03:02.088Z,2.80
2023-04-06T21:05:32.061Z,3.17
2023-04-06T21:08:00.497Z,2.97
2023-04-06T21:10:28.947Z,2.73
2023-04-06T21:12:57.409Z,2.83
2023-04-06T21:15:26.035Z,3.10
2023-04-06T21:17:54.407Z,3.73
2023-04-06T21:20:22.837Z,3.43
2023-04-06T21:22:52.794Z,3.37
2023-04-06T21:25:21.269Z,3.27
2023-04-06T21:27:49.693Z,4.07
2023-04-06T21:30:18.101Z,4.00
2023-04-06T21:32:49.306Z,4.90
2023-04-06T21:35:17.793Z,4.60
2023-04-06T21:37:46.204Z,5.07
2023-04-06T21:40:16.230Z,5.40
2023-04-06T21:42:44.655Z,4.50
2023-04-06T21:45:13.232Z,4.33
2023-04-06T21:47:41.627Z,4.80
2023-04-06T21:50:10.397Z,4.63
2023-04-06T21:52:39.163Z,4.80
2023-04-06T21:55:08.123Z,5.63
2023-04-06T21:57:37.788Z,5.77
2023-04-06T22:00:09.833Z,5.43
2023-04-06T22:02:39.233Z,5.63
2023-04-06T22:05:08.655Z,6.10
2023-04-06T22:07:37.234Z,5.37
2023-04-06T22:10:05.937Z,5.57
2023-04-06T22:12:35.608Z,5.73
2023-04-06T22:15:05.519Z,6.33
2023-04-06T22:17:34.482Z,5.40
2023-04-06T22:20:02.831Z,5.77
2023-04-06T22:22:31.304Z,6.30
2023-04-06T22:25:01.118Z,5.63
2023-04-06T22:27:29.627Z,5.50
2023-04-06T22:29:58.014Z,5.83
2023-04-06T22:32:33.553Z,5.93
2023-04-06T22:35:02.060Z,7.00
2023-04-06T22:37:30.482Z,6.27
2023-04-06T22:39:58.974Z,6.00
2023-04-06T22:42:27.433Z,5.53
2023-04-06T22:44:56.038Z,6.33
2023-04-06T22:47:24.471Z,6.40
2023-04-06T22:49:54.512Z,5.60
2023-04-06T22:52:22.954Z,7.20
2023-04-06T22:54:51.425Z,6.77
2023-04-06T22:57:19.884Z,7.13
2023-04-06T22:59:48.209Z,6.20
2023-04-06T23:02:16.873Z,6.53
2023-04-06T23:04:46.283Z,6.50
2023-04-06T23:07:16.266Z,6.30
2023-04-06T23:09:46.550Z,6.17
2023-04-06T23:12:21.354Z,6.10
2023-04-06T23:14:49.786Z,6.07
2023-04-06T23:17:18.245Z,6.33
2023-04-06T23:19:47.175Z,6.67
2023-04-06T23:22:16.969Z,6.00
2023-04-06T23:24:45.443Z,6.10
2023-04-06T23:27:14.278Z,5.70
2023-04-06T23:29:42.665Z,5.40
2023-04-06T23:32:11.126Z,6.27
2023-04-06T23:34:39.725Z,5.13
2023-04-06T23:37:08.528Z,4.80
2023-04-06T23:39:39.471Z,5.33
2023-04-06T23:42:07.852Z,4.57
2023-04-06T23:44:36.340Z,5.10
2023-04-06T23:47:04.811Z,3.70
2023-04-06T23:49:33.267Z,4.30
2023-04-06T23:52:05.130Z,4.53
2023-04-06T23:54:38.476Z,4.47
2023-04-06T23:57:06.984Z,4.37
2023-04-06T23:59:35.511Z,4.10
